Thedford, NE

8:52 AM CDT on September 23, 2014 (GMT -0500)
Thedford | Change Station
CLOSE
Current Station
Airport
Location: Thedford,
Elevation: 2927 ft
Nearby Weather Stations

Elev 2927 ft 41.96 °N, 100.57 °W | Updated 17 minutes ago

Overcast
Overcast
60 °F
Feels Like 60 °F
N
15
Wind Variable Wind from South
Gusts 22 mph

Today
High -- | Low -- °F
--% Chance of Precip.
Yesterday
High -- | Low -- °F
Precip. -- in
7:30 AM 7:37 PM
Waning Crescent, 0% visible
Pressure 30.00 in
Visibility 10.0 miles
Clouds Overcast 800 ft
Dew Point 57 °F
Humidity 91%
Rainfall 0.00 in
Snow Depth Not available.
UV 0 out of 12
Pollen 2.60 out of 12
Air Quality Not available.
Flu Activity Not available.
METAR KTIF 231335Z AUTO 19013G19KT 10SM OVC008 15/14 A3000 RMK AO2 T01540140

More Conditions Fewer Conditions

Pressure 30.00 in
Visibility 10.0 miles
Clouds Overcast 800 ft
Dew Point 57 °F
Humidity 91%
Rainfall 0.00 in
Snow Depth Not available.
UV 0 out of 12
Pollen 2.60 out of 12
Air Quality Not available.
Flu Activity Not available.
METAR KTIF 231335Z AUTO 19013G19KT 10SM OVC008 15/14 A3000 RMK AO2 T01540140

More Conditions Fewer Conditions

10-Day Weather Forecast

Almanac

Astronomy

Sep. 23, 2014 Rise Set
Actual Time 7:30 AM CDT 7:37 PM CDT
Civil Twilight 7:02 AM CDT 8:05 PM CDT
Nautical Twilight 6:30 AM CDT 8:38 PM CDT
Astronomical Twilight 5:57 AM CDT 9:11 PM CDT
Moon 6:56 AM CDT 7:17 PM CDT
Length of Visible Light 13h 02m
Length of Day
12h 06m
Tomorrow will be 2m 47s shorter.
Waning Crescent, 0% of the Moon is Illuminated
Today
Waning Crescent
Sep 24
New
Oct 1
First Quarter
Oct 8
Full
Oct 15
Last Quarter

Today's Extremes

State Highs State Lows

Community

WunderPhotos

Upload Photos

1,755,669 photos uploaded!

WunderBlogs® & News

Nearby

Snow Depth

Station Depth Elevation
No new snow has been reported.

Earthquake Activity

City Distance Mag. Time & Date
No recent earthquake activity has been reported nearby.
Minimum magnitude displayed is 2.5.

Coastal Water Temperatures

Place Temperature
No Stations Reporting

Nearby Weather Stations